e-Mail: Password: Lost your password? Click here. - Register a new user

c h a v e z j u a r e z . c o m

Weather - Tiempo - Wetter - Temps

METAR DATA MMMX (Mexico City)

Mexico City / Licenci, Mexico (MMMX) 19-26N 099-06W
Jul 18, 2018 - 06:45 PM EDT / 2018.07.18 2245 UTC
Wind: from the NNE (030 degrees) at 10 MPH (9 KT):0
Visibility: 12 mile(s):0
Sky conditions: partly cloudy
Temperature: 77 F (25 C)
Dew Point: 37 F (3 C)
Relative Humidity: 23%
Pressure (altimeter): 30.27 in. Hg (1025 hPa)
ob: MMMX 182245Z 03009KT 12SM SCT020 SCT070 25/03 A3027 NOSIG RMK 8/230 HZY
cycle: 23

Mexico City

St. Prex




Current weather alarms for Switzerland


www.wetteralarm.ch